sensor_id;sensor_type;location;lat;lon;timestamp;temperature;humidity
40434;DHT22;26146;51.114;5.654;2022-12-18T00:01:18;-3.60;99.90
40434;DHT22;26146;51.114;5.654;2022-12-18T00:05:19;-3.60;99.90
40434;DHT22;26146;51.114;5.654;2022-12-18T00:09:20;-3.60;99.90
40434;DHT22;26146;51.114;5.654;2022-12-18T00:13:21;-3.50;99.90
40434;DHT22;26146;51.114;5.654;2022-12-18T00:17:22;-3.70;99.90
40434;DHT22;26146;51.114;5.654;2022-12-18T00:21:23;-3.70;99.90
40434;DHT22;26146;51.114;5.654;2022-12-18T00:25:24;-3.80;99.90
40434;DHT22;26146;51.114;5.654;2022-12-18T00:29:25;-3.60;99.90
40434;DHT22;26146;51.114;5.654;2022-12-18T00:33:26;-3.50;99.90
40434;DHT22;26146;51.114;5.654;2022-12-18T00:37:27;-3.60;99.90
40434;DHT22;26146;51.114;5.654;2022-12-18T00:41:28;-3.70;99.90
40434;DHT22;26146;51.114;5.654;2022-12-18T00:45:48;-3.70;99.90
40434;DHT22;26146;51.114;5.654;2022-12-18T00:49:49;-3.90;99.90
40434;DHT22;26146;51.114;5.654;2022-12-18T00:53:50;-4.00;99.90
40434;DHT22;26146;51.114;5.654;2022-12-18T00:57:51;-3.80;99.90
40434;DHT22;26146;51.114;5.654;2022-12-18T01:01:53;-3.80;99.90
40434;DHT22;26146;51.114;5.654;2022-12-18T01:05:54;-4.00;99.90
40434;DHT22;26146;51.114;5.654;2022-12-18T01:09:55;-4.00;99.90
40434;DHT22;26146;51.114;5.654;2022-12-18T01:13:56;-4.00;99.90
40434;DHT22;26146;51.114;5.654;2022-12-18T01:17:57;-4.10;99.90
40434;DHT22;26146;51.114;5.654;2022-12-18T01:21:58;-4.20;99.90
40434;DHT22;26146;51.114;5.654;2022-12-18T01:26:05;-4.20;99.90
40434;DHT22;26146;51.114;5.654;2022-12-18T01:30:07;-4.30;99.90
40434;DHT22;26146;51.114;5.654;2022-12-18T01:34:09;-4.30;99.90
40434;DHT22;26146;51.114;5.654;2022-12-18T01:38:10;-4.20;99.90
40434;DHT22;26146;51.114;5.654;2022-12-18T01:42:14;-4.20;99.90
40434;DHT22;26146;51.114;5.654;2022-12-18T01:46:17;-4.20;99.90
40434;DHT22;26146;51.114;5.654;2022-12-18T01:50:40;-4.40;99.90
40434;DHT22;26146;51.114;5.654;2022-12-18T01:54:40;-4.40;99.90
40434;DHT22;26146;51.114;5.654;2022-12-18T01:59:07;-4.40;99.90
40434;DHT22;26146;51.114;5.654;2022-12-18T02:03:08;-4.30;99.90
40434;DHT22;26146;51.114;5.654;2022-12-18T02:07:23;-4.40;99.90
40434;DHT22;26146;51.114;5.654;2022-12-18T02:16:11;-4.30;99.90
40434;DHT22;26146;51.114;5.654;2022-12-18T02:20:25;-4.40;99.90
40434;DHT22;26146;51.114;5.654;2022-12-18T02:25:34;-4.40;99.90
40434;DHT22;26146;51.114;5.654;2022-12-18T02:29:09;-4.50;99.90
40434;DHT22;26146;51.114;5.654;2022-12-18T02:33:12;-4.60;99.90
40434;DHT22;26146;51.114;5.654;2022-12-18T02:37:16;-4.60;99.90
40434;DHT22;26146;51.114;5.654;2022-12-18T02:41:19;-4.60;99.90
40434;DHT22;26146;51.114;5.654;2022-12-18T02:45:20;-4.60;99.90
40434;DHT22;26146;51.114;5.654;2022-12-18T02:54:06;-4.50;99.90
40434;DHT22;26146;51.114;5.654;2022-12-18T03:02:40;-4.50;99.90
40434;DHT22;26146;51.114;5.654;2022-12-18T03:06:46;-4.60;99.90
40434;DHT22;26146;51.114;5.654;2022-12-18T03:10:58;-4.60;99.90
40434;DHT22;26146;51.114;5.654;2022-12-18T03:19:26;-4.80;99.90
40434;DHT22;26146;51.114;5.654;2022-12-18T03:23:32;-4.80;99.90
40434;DHT22;26146;51.114;5.654;2022-12-18T03:27:36;-4.80;99.90
40434;DHT22;26146;51.114;5.654;2022-12-18T03:31:42;-4.80;99.90
40434;DHT22;26146;51.114;5.654;2022-12-18T03:35:46;-4.80;99.90
40434;DHT22;26146;51.114;5.654;2022-12-18T03:39:47;-5.00;99.90
40434;DHT22;26146;51.114;5.654;2022-12-18T03:44:41;-4.90;99.90
40434;DHT22;26146;51.114;5.654;2022-12-18T03:48:28;-4.80;99.90
40434;DHT22;26146;51.114;5.654;2022-12-18T03:52:37;-4.90;99.90
40434;DHT22;26146;51.114;5.654;2022-12-18T03:56:44;-5.00;99.90
40434;DHT22;26146;51.114;5.654;2022-12-18T04:00:48;-4.90;99.90
40434;DHT22;26146;51.114;5.654;2022-12-18T04:04:57;-4.90;99.90
40434;DHT22;26146;51.114;5.654;2022-12-18T04:09:00;-5.00;99.90
40434;DHT22;26146;51.114;5.654;2022-12-18T04:13:01;-4.90;99.90
40434;DHT22;26146;51.114;5.654;2022-12-18T04:17:02;-4.90;99.90
40434;DHT22;26146;51.114;5.654;2022-12-18T04:21:04;-5.00;99.90
40434;DHT22;26146;51.114;5.654;2022-12-18T04:25:05;-5.10;99.90
40434;DHT22;26146;51.114;5.654;2022-12-18T04:29:06;-5.00;99.90
40434;DHT22;26146;51.114;5.654;2022-12-18T04:33:11;-5.00;99.90
40434;DHT22;26146;51.114;5.654;2022-12-18T04:37:12;-5.10;99.90
40434;DHT22;26146;51.114;5.654;2022-12-18T04:41:12;-5.10;99.90
40434;DHT22;26146;51.114;5.654;2022-12-18T04:45:13;-5.20;99.90
40434;DHT22;26146;51.114;5.654;2022-12-18T04:49:14;-5.00;99.90
40434;DHT22;26146;51.114;5.654;2022-12-18T04:53:15;-5.10;99.90
40434;DHT22;26146;51.114;5.654;2022-12-18T04:57:16;-5.00;99.90
40434;DHT22;26146;51.114;5.654;2022-12-18T05:01:19;-5.20;99.90
40434;DHT22;26146;51.114;5.654;2022-12-18T05:05:19;-5.10;99.90
40434;DHT22;26146;51.114;5.654;2022-12-18T05:09:20;-4.90;99.90
40434;DHT22;26146;51.114;5.654;2022-12-18T05:13:21;-4.80;99.90
40434;DHT22;26146;51.114;5.654;2022-12-18T05:17:22;-4.80;99.90
40434;DHT22;26146;51.114;5.654;2022-12-18T05:21:23;-4.90;99.90
40434;DHT22;26146;51.114;5.654;2022-12-18T05:25:24;-4.90;99.90
40434;DHT22;26146;51.114;5.654;2022-12-18T05:29:25;-4.80;99.90
40434;DHT22;26146;51.114;5.654;2022-12-18T05:33:30;-4.90;99.90
40434;DHT22;26146;51.114;5.654;2022-12-18T05:37:31;-4.90;99.90
40434;DHT22;26146;51.114;5.654;2022-12-18T05:41:32;-4.90;99.90
40434;DHT22;26146;51.114;5.654;2022-12-18T05:45:37;-4.90;99.90
40434;DHT22;26146;51.114;5.654;2022-12-18T05:49:38;-5.00;99.90
40434;DHT22;26146;51.114;5.654;2022-12-18T05:53:40;-4.90;99.90
40434;DHT22;26146;51.114;5.654;2022-12-18T05:57:41;-4.90;99.90
40434;DHT22;26146;51.114;5.654;2022-12-18T06:01:42;-5.00;99.90
40434;DHT22;26146;51.114;5.654;2022-12-18T06:05:45;-5.00;99.90
40434;DHT22;26146;51.114;5.654;2022-12-18T06:09:46;-4.90;99.90
40434;DHT22;26146;51.114;5.654;2022-12-18T06:13:50;-4.90;99.90
40434;DHT22;26146;51.114;5.654;2022-12-18T06:17:51;-5.00;99.90
40434;DHT22;26146;51.114;5.654;2022-12-18T06:21:52;-5.00;99.90
40434;DHT22;26146;51.114;5.654;2022-12-18T06:26:16;-4.90;99.90
40434;DHT22;26146;51.114;5.654;2022-12-18T06:30:17;-4.90;99.90
40434;DHT22;26146;51.114;5.654;2022-12-18T06:34:18;-5.00;99.90
40434;DHT22;26146;51.114;5.654;2022-12-18T06:38:49;-4.90;99.90
40434;DHT22;26146;51.114;5.654;2022-12-18T06:42:50;-5.00;99.90
40434;DHT22;26146;51.114;5.654;2022-12-18T06:46:51;-4.90;99.90
40434;DHT22;26146;51.114;5.654;2022-12-18T06:50:52;-4.90;99.90
40434;DHT22;26146;51.114;5.654;2022-12-18T06:54:53;-4.90;99.90
40434;DHT22;26146;51.114;5.654;2022-12-18T06:58:54;-4.90;99.90
40434;DHT22;26146;51.114;5.654;2022-12-18T07:02:55;-4.90;99.90
40434;DHT22;26146;51.114;5.654;2022-12-18T07:06:56;-4.90;99.90
40434;DHT22;26146;51.114;5.654;2022-12-18T07:10:58;-5.00;99.90
40434;DHT22;26146;51.114;5.654;2022-12-18T07:14:59;-5.00;99.90
40434;DHT22;26146;51.114;5.654;2022-12-18T07:19:00;-5.00;99.90
40434;DHT22;26146;51.114;5.654;2022-12-18T07:23:05;-5.00;99.90
40434;DHT22;26146;51.114;5.654;2022-12-18T07:27:06;-5.00;99.90
40434;DHT22;26146;51.114;5.654;2022-12-18T07:31:12;-5.10;99.90
40434;DHT22;26146;51.114;5.654;2022-12-18T07:35:14;-5.00;99.90
40434;DHT22;26146;51.114;5.654;2022-12-18T07:39:15;-4.90;99.90
40434;DHT22;26146;51.114;5.654;2022-12-18T07:43:16;-4.90;99.90
40434;DHT22;26146;51.114;5.654;2022-12-18T07:47:17;-5.00;99.90
40434;DHT22;26146;51.114;5.654;2022-12-18T07:51:18;-5.00;99.90
40434;DHT22;26146;51.114;5.654;2022-12-18T07:55:19;-4.80;99.90
40434;DHT22;26146;51.114;5.654;2022-12-18T07:59:20;-4.70;99.90
40434;DHT22;26146;51.114;5.654;2022-12-18T08:03:21;-4.90;99.90
40434;DHT22;26146;51.114;5.654;2022-12-18T08:07:22;-4.70;99.90
40434;DHT22;26146;51.114;5.654;2022-12-18T08:11:26;-4.60;99.90
40434;DHT22;26146;51.114;5.654;2022-12-18T08:15:27;-4.60;99.90
40434;DHT22;26146;51.114;5.654;2022-12-18T08:19:28;-4.40;99.90
40434;DHT22;26146;51.114;5.654;2022-12-18T08:23:29;-4.20;99.90
40434;DHT22;26146;51.114;5.654;2022-12-18T08:27:30;-4.00;99.90
40434;DHT22;26146;51.114;5.654;2022-12-18T08:31:31;-4.00;99.90
40434;DHT22;26146;51.114;5.654;2022-12-18T08:35:35;-3.90;99.90
40434;DHT22;26146;51.114;5.654;2022-12-18T08:39:37;-3.80;99.90
40434;DHT22;26146;51.114;5.654;2022-12-18T08:43:38;-3.80;99.90
40434;DHT22;26146;51.114;5.654;2022-12-18T08:47:57;-3.50;99.90
40434;DHT22;26146;51.114;5.654;2022-12-18T08:51:58;-3.30;99.90
40434;DHT22;26146;51.114;5.654;2022-12-18T08:55:59;-3.20;99.90
40434;DHT22;26146;51.114;5.654;2022-12-18T09:00:00;-3.30;99.90
40434;DHT22;26146;51.114;5.654;2022-12-18T09:04:01;-3.20;99.90
40434;DHT22;26146;51.114;5.654;2022-12-18T09:08:02;-3.30;99.90
40434;DHT22;26146;51.114;5.654;2022-12-18T09:12:03;-2.90;99.90
40434;DHT22;26146;51.114;5.654;2022-12-18T09:16:04;-2.70;99.90
40434;DHT22;26146;51.114;5.654;2022-12-18T09:20:06;-2.40;99.90
40434;DHT22;26146;51.114;5.654;2022-12-18T09:24:14;-2.40;99.90
40434;DHT22;26146;51.114;5.654;2022-12-18T09:28:18;-2.40;99.90
40434;DHT22;26146;51.114;5.654;2022-12-18T09:32:22;-2.20;99.90
40434;DHT22;26146;51.114;5.654;2022-12-18T09:36:23;-2.10;99.90
40434;DHT22;26146;51.114;5.654;2022-12-18T09:40:26;-2.10;99.90
40434;DHT22;26146;51.114;5.654;2022-12-18T09:44:36;-2.10;99.90
40434;DHT22;26146;51.114;5.654;2022-12-18T09:48:45;-1.80;99.90
40434;DHT22;26146;51.114;5.654;2022-12-18T09:52:49;-1.90;99.90
40434;DHT22;26146;51.114;5.654;2022-12-18T09:56:53;-1.90;99.90
40434;DHT22;26146;51.114;5.654;2022-12-18T10:00:54;-1.80;99.90
40434;DHT22;26146;51.114;5.654;2022-12-18T10:13:14;-1.60;99.90
40434;DHT22;26146;51.114;5.654;2022-12-18T10:26:06;-1.30;99.90
40434;DHT22;26146;51.114;5.654;2022-12-18T10:30:18;-1.30;99.90
40434;DHT22;26146;51.114;5.654;2022-12-18T10:34:23;-1.30;99.90
40434;DHT22;26146;51.114;5.654;2022-12-18T10:38:28;-0.80;99.90
40434;DHT22;26146;51.114;5.654;2022-12-18T10:42:29;-0.70;99.90
40434;DHT22;26146;51.114;5.654;2022-12-18T10:46:30;-0.60;99.90
40434;DHT22;26146;51.114;5.654;2022-12-18T10:50:36;-0.70;99.90
40434;DHT22;26146;51.114;5.654;2022-12-18T10:54:38;-0.50;99.90
40434;DHT22;26146;51.114;5.654;2022-12-18T10:58:41;-0.30;99.90
40434;DHT22;26146;51.114;5.654;2022-12-18T11:02:42;-0.40;99.90
40434;DHT22;26146;51.114;5.654;2022-12-18T11:06:55;-0.20;99.90
40434;DHT22;26146;51.114;5.654;2022-12-18T11:10:56;-0.10;99.90
40434;DHT22;26146;51.114;5.654;2022-12-18T11:14:58;-0.20;99.90
40434;DHT22;26146;51.114;5.654;2022-12-18T11:23:23;0.00;99.90
40434;DHT22;26146;51.114;5.654;2022-12-18T11:27:25;-0.10;99.90
40434;DHT22;26146;51.114;5.654;2022-12-18T11:31:28;0.00;99.90
40434;DHT22;26146;51.114;5.654;2022-12-18T11:39:46;0.40;99.90
40434;DHT22;26146;51.114;5.654;2022-12-18T11:43:56;0.30;99.90
40434;DHT22;26146;51.114;5.654;2022-12-18T11:48:09;0.10;99.90
40434;DHT22;26146;51.114;5.654;2022-12-18T11:52:24;0.40;99.90
40434;DHT22;26146;51.114;5.654;2022-12-18T11:56:35;0.50;99.90
40434;DHT22;26146;51.114;5.654;2022-12-18T12:22:56;0.60;99.90
40434;DHT22;26146;51.114;5.654;2022-12-18T12:31:06;1.10;99.90
40434;DHT22;26146;51.114;5.654;2022-12-18T12:35:27;1.00;99.90
40434;DHT22;26146;51.114;5.654;2022-12-18T12:39:37;1.00;99.90
40434;DHT22;26146;51.114;5.654;2022-12-18T12:43:49;1.00;99.90
40434;DHT22;26146;51.114;5.654;2022-12-18T12:47:51;0.90;99.90
40434;DHT22;26146;51.114;5.654;2022-12-18T12:51:58;0.90;99.90
40434;DHT22;26146;51.114;5.654;2022-12-18T12:56:01;1.10;99.90
40434;DHT22;26146;51.114;5.654;2022-12-18T13:00:09;1.20;99.90
40434;DHT22;26146;51.114;5.654;2022-12-18T13:04:32;1.20;99.90
40434;DHT22;26146;51.114;5.654;2022-12-18T13:08:56;1.30;99.90
40434;DHT22;26146;51.114;5.654;2022-12-18T13:21:33;1.40;99.90
40434;DHT22;26146;51.114;5.654;2022-12-18T13:25:38;1.50;99.90
40434;DHT22;26146;51.114;5.654;2022-12-18T13:29:44;1.60;99.90
40434;DHT22;26146;51.114;5.654;2022-12-18T13:33:46;1.40;99.90
40434;DHT22;26146;51.114;5.654;2022-12-18T13:37:54;1.40;99.90
40434;DHT22;26146;51.114;5.654;2022-12-18T13:46:21;1.60;99.90
40434;DHT22;26146;51.114;5.654;2022-12-18T13:50:24;1.70;99.90
40434;DHT22;26146;51.114;5.654;2022-12-18T13:54:40;2.00;99.90
40434;DHT22;26146;51.114;5.654;2022-12-18T13:58:42;1.90;99.90
40434;DHT22;26146;51.114;5.654;2022-12-18T14:02:45;2.00;99.90
40434;DHT22;26146;51.114;5.654;2022-12-18T14:06:47;2.00;99.90
40434;DHT22;26146;51.114;5.654;2022-12-18T14:10:50;2.30;99.90
40434;DHT22;26146;51.114;5.654;2022-12-18T14:14:52;2.30;99.90
40434;DHT22;26146;51.114;5.654;2022-12-18T14:18:55;2.40;99.90
40434;DHT22;26146;51.114;5.654;2022-12-18T14:22:59;2.50;99.90
40434;DHT22;26146;51.114;5.654;2022-12-18T14:27:20;2.30;99.90
40434;DHT22;26146;51.114;5.654;2022-12-18T14:31:26;2.40;99.90
40434;DHT22;26146;51.114;5.654;2022-12-18T14:35:27;2.40;99.90
40434;DHT22;26146;51.114;5.654;2022-12-18T14:39:28;2.40;99.90
40434;DHT22;26146;51.114;5.654;2022-12-18T14:43:33;2.10;99.90
40434;DHT22;26146;51.114;5.654;2022-12-18T14:47:34;2.30;99.90
40434;DHT22;26146;51.114;5.654;2022-12-18T14:51:36;2.40;99.90
40434;DHT22;26146;51.114;5.654;2022-12-18T14:55:37;2.30;99.90
40434;DHT22;26146;51.114;5.654;2022-12-18T14:59:38;2.20;99.90
40434;DHT22;26146;51.114;5.654;2022-12-18T15:03:43;2.20;99.90
40434;DHT22;26146;51.114;5.654;2022-12-18T15:07:51;2.10;99.90
40434;DHT22;26146;51.114;5.654;2022-12-18T15:12:00;2.00;99.90
40434;DHT22;26146;51.114;5.654;2022-12-18T15:16:02;2.00;99.90
40434;DHT22;26146;51.114;5.654;2022-12-18T15:20:10;2.00;99.90
40434;DHT22;26146;51.114;5.654;2022-12-18T15:24:26;1.90;99.90
40434;DHT22;26146;51.114;5.654;2022-12-18T15:28:52;2.20;99.90
40434;DHT22;26146;51.114;5.654;2022-12-18T15:33:18;2.10;99.90
40434;DHT22;26146;51.114;5.654;2022-12-18T15:37:23;2.10;99.90
40434;DHT22;26146;51.114;5.654;2022-12-18T15:41:24;2.00;99.90
40434;DHT22;26146;51.114;5.654;2022-12-18T15:45:25;2.10;99.90
40434;DHT22;26146;51.114;5.654;2022-12-18T15:49:26;2.00;99.90
40434;DHT22;26146;51.114;5.654;2022-12-18T15:53:32;2.00;99.90
40434;DHT22;26146;51.114;5.654;2022-12-18T15:57:34;2.20;99.90
40434;DHT22;26146;51.114;5.654;2022-12-18T16:01:35;2.10;99.90
40434;DHT22;26146;51.114;5.654;2022-12-18T16:05:36;1.90;99.90
40434;DHT22;26146;51.114;5.654;2022-12-18T16:09:37;1.90;99.90
40434;DHT22;26146;51.114;5.654;2022-12-18T16:13:39;2.10;99.90
40434;DHT22;26146;51.114;5.654;2022-12-18T16:17:40;1.90;99.90
40434;DHT22;26146;51.114;5.654;2022-12-18T16:21:44;1.90;99.90
40434;DHT22;26146;51.114;5.654;2022-12-18T16:25:45;1.90;99.90
40434;DHT22;26146;51.114;5.654;2022-12-18T16:29:49;2.10;99.90
40434;DHT22;26146;51.114;5.654;2022-12-18T16:34:15;1.90;99.90
40434;DHT22;26146;51.114;5.654;2022-12-18T16:38:32;2.10;99.90
40434;DHT22;26146;51.114;5.654;2022-12-18T16:42:53;1.90;99.90
40434;DHT22;26146;51.114;5.654;2022-12-18T16:47:02;1.90;99.90
40434;DHT22;26146;51.114;5.654;2022-12-18T16:51:04;2.10;99.90
40434;DHT22;26146;51.114;5.654;2022-12-18T16:55:06;1.90;99.90
40434;DHT22;26146;51.114;5.654;2022-12-18T16:59:09;1.80;99.90
40434;DHT22;26146;51.114;5.654;2022-12-18T17:03:11;1.80;99.90
40434;DHT22;26146;51.114;5.654;2022-12-18T17:07:12;2.00;99.90
40434;DHT22;26146;51.114;5.654;2022-12-18T17:11:13;2.10;99.90
40434;DHT22;26146;51.114;5.654;2022-12-18T17:15:14;2.00;99.90
40434;DHT22;26146;51.114;5.654;2022-12-18T17:19:15;1.80;99.90
40434;DHT22;26146;51.114;5.654;2022-12-18T17:23:18;1.90;99.90
40434;DHT22;26146;51.114;5.654;2022-12-18T17:27:21;1.80;99.90
40434;DHT22;26146;51.114;5.654;2022-12-18T17:31:24;1.70;99.90
40434;DHT22;26146;51.114;5.654;2022-12-18T17:35:29;1.70;99.90
40434;DHT22;26146;51.114;5.654;2022-12-18T17:39:30;1.80;99.90
40434;DHT22;26146;51.114;5.654;2022-12-18T17:43:31;1.80;99.90
40434;DHT22;26146;51.114;5.654;2022-12-18T17:47:35;1.80;99.90
40434;DHT22;26146;51.114;5.654;2022-12-18T17:51:36;1.70;99.90
40434;DHT22;26146;51.114;5.654;2022-12-18T17:55:37;1.80;99.90
40434;DHT22;26146;51.114;5.654;2022-12-18T17:59:38;1.90;99.90
40434;DHT22;26146;51.114;5.654;2022-12-18T18:03:39;1.80;99.90
40434;DHT22;26146;51.114;5.654;2022-12-18T18:07:40;2.00;99.90
40434;DHT22;26146;51.114;5.654;2022-12-18T18:11:41;2.00;99.90
40434;DHT22;26146;51.114;5.654;2022-12-18T18:16:01;2.00;99.90
40434;DHT22;26146;51.114;5.654;2022-12-18T18:20:03;2.10;99.90
40434;DHT22;26146;51.114;5.654;2022-12-18T18:24:06;2.00;99.90
40434;DHT22;26146;51.114;5.654;2022-12-18T18:28:07;1.80;99.90
40434;DHT22;26146;51.114;5.654;2022-12-18T18:32:08;1.90;99.90
40434;DHT22;26146;51.114;5.654;2022-12-18T18:36:11;1.80;99.90
40434;DHT22;26146;51.114;5.654;2022-12-18T18:40:12;2.20;99.90
40434;DHT22;26146;51.114;5.654;2022-12-18T18:44:13;2.20;99.90
40434;DHT22;26146;51.114;5.654;2022-12-18T18:48:14;2.00;99.90
40434;DHT22;26146;51.114;5.654;2022-12-18T18:52:18;2.10;99.90
40434;DHT22;26146;51.114;5.654;2022-12-18T18:56:21;2.20;99.90
40434;DHT22;26146;51.114;5.654;2022-12-18T19:00:22;2.00;99.90
40434;DHT22;26146;51.114;5.654;2022-12-18T19:04:23;2.20;99.90
40434;DHT22;26146;51.114;5.654;2022-12-18T19:08:26;2.20;99.90
40434;DHT22;26146;51.114;5.654;2022-12-18T19:12:27;2.50;99.90
40434;DHT22;26146;51.114;5.654;2022-12-18T19:16:46;2.40;99.90
40434;DHT22;26146;51.114;5.654;2022-12-18T19:20:59;2.30;99.90
40434;DHT22;26146;51.114;5.654;2022-12-18T19:25:00;2.30;99.90
40434;DHT22;26146;51.114;5.654;2022-12-18T19:29:02;2.20;99.90
40434;DHT22;26146;51.114;5.654;2022-12-18T19:33:04;2.50;99.90
40434;DHT22;26146;51.114;5.654;2022-12-18T19:37:05;2.40;99.90
40434;DHT22;26146;51.114;5.654;2022-12-18T19:41:07;2.50;99.90
40434;DHT22;26146;51.114;5.654;2022-12-18T19:45:09;2.40;99.90
40434;DHT22;26146;51.114;5.654;2022-12-18T19:49:10;2.30;99.90
40434;DHT22;26146;51.114;5.654;2022-12-18T19:53:11;2.40;99.90
40434;DHT22;26146;51.114;5.654;2022-12-18T19:57:12;2.50;99.90
40434;DHT22;26146;51.114;5.654;2022-12-18T20:01:14;2.20;99.90
40434;DHT22;26146;51.114;5.654;2022-12-18T20:05:16;2.40;99.90
40434;DHT22;26146;51.114;5.654;2022-12-18T20:09:18;2.40;99.90
40434;DHT22;26146;51.114;5.654;2022-12-18T20:13:19;2.50;99.90
40434;DHT22;26146;51.114;5.654;2022-12-18T20:17:20;2.30;99.90
40434;DHT22;26146;51.114;5.654;2022-12-18T20:21:22;2.20;99.90
40434;DHT22;26146;51.114;5.654;2022-12-18T20:25:23;2.40;99.90
40434;DHT22;26146;51.114;5.654;2022-12-18T20:29:24;2.30;99.90
40434;DHT22;26146;51.114;5.654;2022-12-18T20:33:26;2.30;99.90
40434;DHT22;26146;51.114;5.654;2022-12-18T20:37:27;2.30;99.90
40434;DHT22;26146;51.114;5.654;2022-12-18T20:41:28;2.40;99.90
40434;DHT22;26146;51.114;5.654;2022-12-18T20:45:30;2.50;99.90
40434;DHT22;26146;51.114;5.654;2022-12-18T20:49:31;2.30;99.90
40434;DHT22;26146;51.114;5.654;2022-12-18T20:53:33;2.30;99.90
40434;DHT22;26146;51.114;5.654;2022-12-18T20:57:34;2.40;99.90
40434;DHT22;26146;51.114;5.654;2022-12-18T21:01:35;2.30;99.90
40434;DHT22;26146;51.114;5.654;2022-12-18T21:05:38;2.40;99.90
40434;DHT22;26146;51.114;5.654;2022-12-18T21:09:39;2.40;99.90
40434;DHT22;26146;51.114;5.654;2022-12-18T21:13:40;2.50;99.90
40434;DHT22;26146;51.114;5.654;2022-12-18T21:17:41;2.30;99.90
40434;DHT22;26146;51.114;5.654;2022-12-18T21:21:42;2.50;99.90
40434;DHT22;26146;51.114;5.654;2022-12-18T21:25:43;2.60;99.90
40434;DHT22;26146;51.114;5.654;2022-12-18T21:29:44;2.60;99.90
40434;DHT22;26146;51.114;5.654;2022-12-18T21:33:46;2.40;99.90
40434;DHT22;26146;51.114;5.654;2022-12-18T21:37:55;2.50;99.90
40434;DHT22;26146;51.114;5.654;2022-12-18T21:41:56;2.50;99.90
40434;DHT22;26146;51.114;5.654;2022-12-18T21:46:16;2.50;99.90
40434;DHT22;26146;51.114;5.654;2022-12-18T21:50:17;2.40;99.90
40434;DHT22;26146;51.114;5.654;2022-12-18T21:54:18;2.50;99.90
40434;DHT22;26146;51.114;5.654;2022-12-18T21:58:19;2.60;99.90
40434;DHT22;26146;51.114;5.654;2022-12-18T22:02:21;2.60;99.90
40434;DHT22;26146;51.114;5.654;2022-12-18T22:06:22;2.60;99.90
40434;DHT22;26146;51.114;5.654;2022-12-18T22:10:23;2.80;99.90
40434;DHT22;26146;51.114;5.654;2022-12-18T22:14:25;2.80;99.90
40434;DHT22;26146;51.114;5.654;2022-12-18T22:18:26;2.80;99.90
40434;DHT22;26146;51.114;5.654;2022-12-18T22:22:27;2.60;99.90
40434;DHT22;26146;51.114;5.654;2022-12-18T22:26:29;2.60;99.90
40434;DHT22;26146;51.114;5.654;2022-12-18T22:30:31;2.50;99.90
40434;DHT22;26146;51.114;5.654;2022-12-18T22:34:32;2.60;99.90
40434;DHT22;26146;51.114;5.654;2022-12-18T22:38:33;2.60;99.90
40434;DHT22;26146;51.114;5.654;2022-12-18T22:42:34;2.60;99.90
40434;DHT22;26146;51.114;5.654;2022-12-18T22:46:38;2.70;99.90
40434;DHT22;26146;51.114;5.654;2022-12-18T22:50:40;2.80;99.90
40434;DHT22;26146;51.114;5.654;2022-12-18T22:54:41;2.80;99.90
40434;DHT22;26146;51.114;5.654;2022-12-18T22:58:42;2.80;99.90
40434;DHT22;26146;51.114;5.654;2022-12-18T23:02:43;2.70;99.90
40434;DHT22;26146;51.114;5.654;2022-12-18T23:06:45;2.60;99.90
40434;DHT22;26146;51.114;5.654;2022-12-18T23:10:45;2.60;99.90
40434;DHT22;26146;51.114;5.654;2022-12-18T23:14:46;2.70;99.90
40434;DHT22;26146;51.114;5.654;2022-12-18T23:18:53;2.80;99.90
40434;DHT22;26146;51.114;5.654;2022-12-18T23:22:54;2.90;99.90
40434;DHT22;26146;51.114;5.654;2022-12-18T23:26:55;3.10;99.90
40434;DHT22;26146;51.114;5.654;2022-12-18T23:31:23;3.20;99.90
40434;DHT22;26146;51.114;5.654;2022-12-18T23:35:23;3.10;99.90
40434;DHT22;26146;51.114;5.654;2022-12-18T23:39:24;2.90;99.90
40434;DHT22;26146;51.114;5.654;2022-12-18T23:43:26;3.00;99.90
40434;DHT22;26146;51.114;5.654;2022-12-18T23:47:28;3.10;99.90
40434;DHT22;26146;51.114;5.654;2022-12-18T23:51:30;3.20;99.90
40434;DHT22;26146;51.114;5.654;2022-12-18T23:55:33;3.10;99.90
40434;DHT22;26146;51.114;5.654;2022-12-18T23:59:36;3.00;99.90
